sensor_id;sensor_type;location;lat;lon;timestamp;temperature;humidity
17154;DHT22;8692;52.164;7.558;2024-01-30T00:00:02;4.90;99.90
17154;DHT22;8692;52.164;7.558;2024-01-30T00:02:31;5.00;99.90
17154;DHT22;8692;52.164;7.558;2024-01-30T00:04:59;5.00;99.90
17154;DHT22;8692;52.164;7.558;2024-01-30T00:07:27;5.00;99.90
17154;DHT22;8692;52.164;7.558;2024-01-30T00:09:55;5.00;99.90
17154;DHT22;8692;52.164;7.558;2024-01-30T00:12:25;5.10;99.90
17154;DHT22;8692;52.164;7.558;2024-01-30T00:14:53;5.10;99.90
17154;DHT22;8692;52.164;7.558;2024-01-30T00:17:21;5.10;99.90
17154;DHT22;8692;52.164;7.558;2024-01-30T00:19:49;5.10;99.90
17154;DHT22;8692;52.164;7.558;2024-01-30T00:22:17;5.10;99.90
17154;DHT22;8692;52.164;7.558;2024-01-30T00:24:45;5.10;99.90
17154;DHT22;8692;52.164;7.558;2024-01-30T00:27:13;5.10;99.90
17154;DHT22;8692;52.164;7.558;2024-01-30T00:29:42;5.10;99.90
17154;DHT22;8692;52.164;7.558;2024-01-30T00:32:10;5.00;99.90
17154;DHT22;8692;52.164;7.558;2024-01-30T00:34:38;5.00;99.90
17154;DHT22;8692;52.164;7.558;2024-01-30T00:37:06;5.00;99.90
17154;DHT22;8692;52.164;7.558;2024-01-30T00:39:34;5.00;99.90
17154;DHT22;8692;52.164;7.558;2024-01-30T00:42:03;5.00;99.90
17154;DHT22;8692;52.164;7.558;2024-01-30T00:44:31;5.00;99.90
17154;DHT22;8692;52.164;7.558;2024-01-30T00:47:01;4.90;99.90
17154;DHT22;8692;52.164;7.558;2024-01-30T00:49:29;4.90;99.90
17154;DHT22;8692;52.164;7.558;2024-01-30T00:51:57;4.90;99.90
17154;DHT22;8692;52.164;7.558;2024-01-30T00:54:25;4.90;99.90
17154;DHT22;8692;52.164;7.558;2024-01-30T00:56:53;4.90;99.90
17154;DHT22;8692;52.164;7.558;2024-01-30T00:59:20;4.80;99.90
17154;DHT22;8692;52.164;7.558;2024-01-30T01:01:49;4.90;99.90
17154;DHT22;8692;52.164;7.558;2024-01-30T01:04:18;4.80;99.90
17154;DHT22;8692;52.164;7.558;2024-01-30T01:06:48;4.80;99.90
17154;DHT22;8692;52.164;7.558;2024-01-30T01:09:16;4.90;99.90
17154;DHT22;8692;52.164;7.558;2024-01-30T01:11:44;4.90;99.90
17154;DHT22;8692;52.164;7.558;2024-01-30T01:14:12;4.90;99.90
17154;DHT22;8692;52.164;7.558;2024-01-30T01:16:40;4.90;99.90
17154;DHT22;8692;52.164;7.558;2024-01-30T01:19:08;4.90;99.90
17154;DHT22;8692;52.164;7.558;2024-01-30T01:21:37;5.00;99.90
17154;DHT22;8692;52.164;7.558;2024-01-30T01:24:06;5.00;99.90
17154;DHT22;8692;52.164;7.558;2024-01-30T01:26:33;5.00;99.90
17154;DHT22;8692;52.164;7.558;2024-01-30T01:29:01;5.00;99.90
17154;DHT22;8692;52.164;7.558;2024-01-30T01:31:36;5.10;99.90
17154;DHT22;8692;52.164;7.558;2024-01-30T01:34:13;5.10;99.90
17154;DHT22;8692;52.164;7.558;2024-01-30T01:36:42;5.10;99.90
17154;DHT22;8692;52.164;7.558;2024-01-30T01:39:10;5.20;99.90
17154;DHT22;8692;52.164;7.558;2024-01-30T01:41:38;5.20;99.90
17154;DHT22;8692;52.164;7.558;2024-01-30T01:44:06;5.20;99.90
17154;DHT22;8692;52.164;7.558;2024-01-30T01:46:34;5.20;99.90
17154;DHT22;8692;52.164;7.558;2024-01-30T01:49:05;5.30;99.90
17154;DHT22;8692;52.164;7.558;2024-01-30T01:51:34;5.30;99.90
17154;DHT22;8692;52.164;7.558;2024-01-30T01:54:05;5.30;99.90
17154;DHT22;8692;52.164;7.558;2024-01-30T01:56:34;5.40;99.90
17154;DHT22;8692;52.164;7.558;2024-01-30T01:59:05;5.40;99.90
17154;DHT22;8692;52.164;7.558;2024-01-30T02:01:37;5.50;99.90
17154;DHT22;8692;52.164;7.558;2024-01-30T02:04:05;5.50;99.90
17154;DHT22;8692;52.164;7.558;2024-01-30T02:06:33;5.60;99.90
17154;DHT22;8692;52.164;7.558;2024-01-30T02:09:03;5.60;99.90
17154;DHT22;8692;52.164;7.558;2024-01-30T02:11:32;5.70;99.90
17154;DHT22;8692;52.164;7.558;2024-01-30T02:14:02;5.70;99.90
17154;DHT22;8692;52.164;7.558;2024-01-30T02:16:30;5.70;99.90
17154;DHT22;8692;52.164;7.558;2024-01-30T02:18:58;5.70;99.90
17154;DHT22;8692;52.164;7.558;2024-01-30T02:21:28;5.80;99.90
17154;DHT22;8692;52.164;7.558;2024-01-30T02:23:57;5.80;99.90
17154;DHT22;8692;52.164;7.558;2024-01-30T02:26:26;5.80;99.90
17154;DHT22;8692;52.164;7.558;2024-01-30T02:28:54;5.80;99.90
17154;DHT22;8692;52.164;7.558;2024-01-30T02:31:22;5.80;99.90
17154;DHT22;8692;52.164;7.558;2024-01-30T02:33:51;5.80;99.90
17154;DHT22;8692;52.164;7.558;2024-01-30T02:36:19;5.80;99.90
17154;DHT22;8692;52.164;7.558;2024-01-30T02:38:48;5.80;99.90
17154;DHT22;8692;52.164;7.558;2024-01-30T02:41:16;5.80;99.90
17154;DHT22;8692;52.164;7.558;2024-01-30T02:43:44;5.80;99.90
17154;DHT22;8692;52.164;7.558;2024-01-30T02:46:13;5.80;99.90
17154;DHT22;8692;52.164;7.558;2024-01-30T02:48:41;5.80;99.90
17154;DHT22;8692;52.164;7.558;2024-01-30T02:51:09;5.80;99.90
17154;DHT22;8692;52.164;7.558;2024-01-30T02:53:37;5.80;99.90
17154;DHT22;8692;52.164;7.558;2024-01-30T02:56:07;5.90;99.90
17154;DHT22;8692;52.164;7.558;2024-01-30T02:58:36;5.80;99.90
17154;DHT22;8692;52.164;7.558;2024-01-30T03:01:04;5.80;99.90
17154;DHT22;8692;52.164;7.558;2024-01-30T03:03:32;5.80;99.90
17154;DHT22;8692;52.164;7.558;2024-01-30T03:06:02;5.80;99.90
17154;DHT22;8692;52.164;7.558;2024-01-30T03:08:30;5.80;99.90
17154;DHT22;8692;52.164;7.558;2024-01-30T03:10:58;5.80;99.90
17154;DHT22;8692;52.164;7.558;2024-01-30T03:13:27;5.80;99.90
17154;DHT22;8692;52.164;7.558;2024-01-30T03:15:55;5.80;99.90
17154;DHT22;8692;52.164;7.558;2024-01-30T03:18:23;5.80;99.90
17154;DHT22;8692;52.164;7.558;2024-01-30T03:20:51;5.80;99.90
17154;DHT22;8692;52.164;7.558;2024-01-30T03:23:19;5.80;99.90
17154;DHT22;8692;52.164;7.558;2024-01-30T03:25:47;5.80;99.90
17154;DHT22;8692;52.164;7.558;2024-01-30T03:28:15;5.70;99.90
17154;DHT22;8692;52.164;7.558;2024-01-30T03:30:44;5.70;99.90
17154;DHT22;8692;52.164;7.558;2024-01-30T03:33:12;5.70;99.90
17154;DHT22;8692;52.164;7.558;2024-01-30T03:35:40;5.70;99.90
17154;DHT22;8692;52.164;7.558;2024-01-30T03:38:09;5.70;99.90
17154;DHT22;8692;52.164;7.558;2024-01-30T03:40:37;5.70;99.90
17154;DHT22;8692;52.164;7.558;2024-01-30T03:43:05;5.70;99.90
17154;DHT22;8692;52.164;7.558;2024-01-30T03:45:33;5.70;99.90
17154;DHT22;8692;52.164;7.558;2024-01-30T03:48:03;5.60;99.90
17154;DHT22;8692;52.164;7.558;2024-01-30T03:50:31;5.60;99.90
17154;DHT22;8692;52.164;7.558;2024-01-30T03:52:59;5.70;99.90
17154;DHT22;8692;52.164;7.558;2024-01-30T03:55:27;5.70;99.90
17154;DHT22;8692;52.164;7.558;2024-01-30T03:57:55;5.70;99.90
17154;DHT22;8692;52.164;7.558;2024-01-30T04:00:23;5.60;99.90
17154;DHT22;8692;52.164;7.558;2024-01-30T04:02:51;5.60;99.90
17154;DHT22;8692;52.164;7.558;2024-01-30T04:05:20;5.70;99.90
17154;DHT22;8692;52.164;7.558;2024-01-30T04:07:49;5.60;99.90
17154;DHT22;8692;52.164;7.558;2024-01-30T04:10:17;5.60;99.90
17154;DHT22;8692;52.164;7.558;2024-01-30T04:12:45;5.60;99.90
17154;DHT22;8692;52.164;7.558;2024-01-30T04:15:13;5.70;99.90
17154;DHT22;8692;52.164;7.558;2024-01-30T04:17:42;5.60;99.90
17154;DHT22;8692;52.164;7.558;2024-01-30T04:20:13;5.60;99.90
17154;DHT22;8692;52.164;7.558;2024-01-30T04:22:44;5.60;99.90
17154;DHT22;8692;52.164;7.558;2024-01-30T04:25:13;5.60;99.90
17154;DHT22;8692;52.164;7.558;2024-01-30T04:27:44;5.50;99.90
17154;DHT22;8692;52.164;7.558;2024-01-30T04:30:12;5.50;99.90
17154;DHT22;8692;52.164;7.558;2024-01-30T04:32:40;5.50;99.90
17154;DHT22;8692;52.164;7.558;2024-01-30T04:35:09;5.50;99.90
17154;DHT22;8692;52.164;7.558;2024-01-30T04:37:38;5.50;99.90
17154;DHT22;8692;52.164;7.558;2024-01-30T04:40:08;5.40;99.90
17154;DHT22;8692;52.164;7.558;2024-01-30T04:42:36;5.40;99.90
17154;DHT22;8692;52.164;7.558;2024-01-30T04:45:06;5.40;99.90
17154;DHT22;8692;52.164;7.558;2024-01-30T04:47:34;5.40;99.90
17154;DHT22;8692;52.164;7.558;2024-01-30T04:50:02;5.40;99.90
17154;DHT22;8692;52.164;7.558;2024-01-30T04:52:31;5.40;99.90
17154;DHT22;8692;52.164;7.558;2024-01-30T04:54:59;5.40;99.90
17154;DHT22;8692;52.164;7.558;2024-01-30T04:57:29;5.30;99.90
17154;DHT22;8692;52.164;7.558;2024-01-30T04:59:57;5.30;99.90
17154;DHT22;8692;52.164;7.558;2024-01-30T05:02:25;5.30;99.90
17154;DHT22;8692;52.164;7.558;2024-01-30T05:04:53;5.30;99.90
17154;DHT22;8692;52.164;7.558;2024-01-30T05:07:21;5.30;99.90
17154;DHT22;8692;52.164;7.558;2024-01-30T05:09:49;5.30;99.90
17154;DHT22;8692;52.164;7.558;2024-01-30T05:12:19;5.30;99.90
17154;DHT22;8692;52.164;7.558;2024-01-30T05:14:48;5.30;99.90
17154;DHT22;8692;52.164;7.558;2024-01-30T05:17:16;5.30;99.90
17154;DHT22;8692;52.164;7.558;2024-01-30T05:19:44;5.30;99.90
17154;DHT22;8692;52.164;7.558;2024-01-30T05:22:12;5.30;99.90
17154;DHT22;8692;52.164;7.558;2024-01-30T05:24:42;5.30;99.90
17154;DHT22;8692;52.164;7.558;2024-01-30T05:27:10;5.30;99.90
17154;DHT22;8692;52.164;7.558;2024-01-30T05:29:40;5.30;99.90
17154;DHT22;8692;52.164;7.558;2024-01-30T05:32:09;5.30;99.90
17154;DHT22;8692;52.164;7.558;2024-01-30T05:34:38;5.30;99.90
17154;DHT22;8692;52.164;7.558;2024-01-30T05:37:06;5.30;99.90
17154;DHT22;8692;52.164;7.558;2024-01-30T05:39:34;5.30;99.90
17154;DHT22;8692;52.164;7.558;2024-01-30T05:42:02;5.30;99.90
17154;DHT22;8692;52.164;7.558;2024-01-30T05:44:31;5.30;99.90
17154;DHT22;8692;52.164;7.558;2024-01-30T05:47:00;5.30;99.90
17154;DHT22;8692;52.164;7.558;2024-01-30T05:49:29;5.30;99.90
17154;DHT22;8692;52.164;7.558;2024-01-30T05:51:57;5.30;99.90
17154;DHT22;8692;52.164;7.558;2024-01-30T05:54:25;5.30;99.90
17154;DHT22;8692;52.164;7.558;2024-01-30T05:56:53;5.20;99.90
17154;DHT22;8692;52.164;7.558;2024-01-30T05:59:21;5.20;99.90
17154;DHT22;8692;52.164;7.558;2024-01-30T06:01:49;5.20;99.90
17154;DHT22;8692;52.164;7.558;2024-01-30T06:04:17;5.20;99.90
17154;DHT22;8692;52.164;7.558;2024-01-30T06:06:46;5.20;99.90
17154;DHT22;8692;52.164;7.558;2024-01-30T06:09:15;5.20;99.90
17154;DHT22;8692;52.164;7.558;2024-01-30T06:11:43;5.20;99.90
17154;DHT22;8692;52.164;7.558;2024-01-30T06:14:10;5.10;99.90
17154;DHT22;8692;52.164;7.558;2024-01-30T06:16:38;5.10;99.90
17154;DHT22;8692;52.164;7.558;2024-01-30T06:19:06;5.20;99.90
17154;DHT22;8692;52.164;7.558;2024-01-30T06:21:34;5.20;99.90
17154;DHT22;8692;52.164;7.558;2024-01-30T06:24:06;5.20;99.90
17154;DHT22;8692;52.164;7.558;2024-01-30T06:26:34;5.20;99.90
17154;DHT22;8692;52.164;7.558;2024-01-30T06:29:02;5.30;99.90
17154;DHT22;8692;52.164;7.558;2024-01-30T06:31:30;5.30;99.90
17154;DHT22;8692;52.164;7.558;2024-01-30T06:33:58;5.30;99.90
17154;DHT22;8692;52.164;7.558;2024-01-30T06:36:26;5.30;99.90
17154;DHT22;8692;52.164;7.558;2024-01-30T06:38:54;5.30;99.90
17154;DHT22;8692;52.164;7.558;2024-01-30T06:41:23;5.30;99.90
17154;DHT22;8692;52.164;7.558;2024-01-30T06:43:52;5.30;99.90
17154;DHT22;8692;52.164;7.558;2024-01-30T06:46:20;5.40;99.90
17154;DHT22;8692;52.164;7.558;2024-01-30T06:48:48;5.40;99.90
17154;DHT22;8692;52.164;7.558;2024-01-30T06:51:16;5.40;99.90
17154;DHT22;8692;52.164;7.558;2024-01-30T06:53:44;5.40;99.90
17154;DHT22;8692;52.164;7.558;2024-01-30T06:56:12;5.40;99.90
17154;DHT22;8692;52.164;7.558;2024-01-30T06:58:41;5.40;99.90
17154;DHT22;8692;52.164;7.558;2024-01-30T07:01:09;5.40;99.90
17154;DHT22;8692;52.164;7.558;2024-01-30T07:03:38;5.40;99.90
17154;DHT22;8692;52.164;7.558;2024-01-30T07:06:06;5.50;99.90
17154;DHT22;8692;52.164;7.558;2024-01-30T07:08:34;5.40;99.90
17154;DHT22;8692;52.164;7.558;2024-01-30T07:11:02;5.40;99.90
17154;DHT22;8692;52.164;7.558;2024-01-30T07:13:30;5.50;99.90
17154;DHT22;8692;52.164;7.558;2024-01-30T07:16:00;5.40;99.90
17154;DHT22;8692;52.164;7.558;2024-01-30T07:18:28;5.50;99.90
17154;DHT22;8692;52.164;7.558;2024-01-30T07:20:56;5.40;99.90
17154;DHT22;8692;52.164;7.558;2024-01-30T07:23:24;5.40;99.90
17154;DHT22;8692;52.164;7.558;2024-01-30T07:25:52;5.40;99.90
17154;DHT22;8692;52.164;7.558;2024-01-30T07:28:20;5.40;99.90
17154;DHT22;8692;52.164;7.558;2024-01-30T07:30:48;5.40;99.90
17154;DHT22;8692;52.164;7.558;2024-01-30T07:33:18;5.40;99.90
17154;DHT22;8692;52.164;7.558;2024-01-30T07:35:46;5.40;99.90
17154;DHT22;8692;52.164;7.558;2024-01-30T07:38:14;5.40;99.90
17154;DHT22;8692;52.164;7.558;2024-01-30T07:40:42;5.40;99.90
17154;DHT22;8692;52.164;7.558;2024-01-30T07:43:10;5.40;99.90
17154;DHT22;8692;52.164;7.558;2024-01-30T07:45:38;5.40;99.90
17154;DHT22;8692;52.164;7.558;2024-01-30T07:48:07;5.40;99.90
17154;DHT22;8692;52.164;7.558;2024-01-30T07:50:36;5.40;99.90
17154;DHT22;8692;52.164;7.558;2024-01-30T07:53:04;5.40;99.90
17154;DHT22;8692;52.164;7.558;2024-01-30T07:55:32;5.50;99.90
17154;DHT22;8692;52.164;7.558;2024-01-30T07:58:01;5.50;99.90
17154;DHT22;8692;52.164;7.558;2024-01-30T08:00:31;5.40;99.90
17154;DHT22;8692;52.164;7.558;2024-01-30T08:02:59;5.50;99.90
17154;DHT22;8692;52.164;7.558;2024-01-30T08:05:27;5.50;99.90
17154;DHT22;8692;52.164;7.558;2024-01-30T08:07:56;5.50;99.90
17154;DHT22;8692;52.164;7.558;2024-01-30T08:10:24;5.60;99.90
17154;DHT22;8692;52.164;7.558;2024-01-30T08:12:53;5.60;99.90
17154;DHT22;8692;52.164;7.558;2024-01-30T08:15:21;5.60;99.90
17154;DHT22;8692;52.164;7.558;2024-01-30T08:17:49;5.60;99.90
17154;DHT22;8692;52.164;7.558;2024-01-30T08:20:22;5.70;99.90
17154;DHT22;8692;52.164;7.558;2024-01-30T08:22:50;5.70;99.90
17154;DHT22;8692;52.164;7.558;2024-01-30T08:25:19;5.80;99.90
17154;DHT22;8692;52.164;7.558;2024-01-30T08:27:48;5.80;99.90
17154;DHT22;8692;52.164;7.558;2024-01-30T08:30:16;5.80;99.90
17154;DHT22;8692;52.164;7.558;2024-01-30T08:32:44;5.90;99.90
17154;DHT22;8692;52.164;7.558;2024-01-30T08:35:12;5.90;99.90
17154;DHT22;8692;52.164;7.558;2024-01-30T08:37:43;6.00;99.90
17154;DHT22;8692;52.164;7.558;2024-01-30T08:40:11;6.00;99.90
17154;DHT22;8692;52.164;7.558;2024-01-30T08:42:40;6.10;99.90
17154;DHT22;8692;52.164;7.558;2024-01-30T08:45:09;6.20;99.90
17154;DHT22;8692;52.164;7.558;2024-01-30T08:47:37;6.20;99.90
17154;DHT22;8692;52.164;7.558;2024-01-30T08:50:06;6.20;99.90
17154;DHT22;8692;52.164;7.558;2024-01-30T08:52:35;6.20;99.90
17154;DHT22;8692;52.164;7.558;2024-01-30T08:55:03;6.30;99.90
17154;DHT22;8692;52.164;7.558;2024-01-30T08:57:32;6.30;99.90
17154;DHT22;8692;52.164;7.558;2024-01-30T09:00:01;6.40;99.90
17154;DHT22;8692;52.164;7.558;2024-01-30T09:02:34;6.40;99.90
17154;DHT22;8692;52.164;7.558;2024-01-30T09:05:02;6.40;99.90
17154;DHT22;8692;52.164;7.558;2024-01-30T09:07:30;6.50;99.90
17154;DHT22;8692;52.164;7.558;2024-01-30T09:09:59;6.60;99.90
17154;DHT22;8692;52.164;7.558;2024-01-30T09:12:27;6.50;99.90
17154;DHT22;8692;52.164;7.558;2024-01-30T09:14:55;6.60;99.90
17154;DHT22;8692;52.164;7.558;2024-01-30T09:17:24;6.60;99.90
17154;DHT22;8692;52.164;7.558;2024-01-30T09:19:52;6.70;99.90
17154;DHT22;8692;52.164;7.558;2024-01-30T09:22:20;6.70;99.90
17154;DHT22;8692;52.164;7.558;2024-01-30T09:24:48;6.80;99.90
17154;DHT22;8692;52.164;7.558;2024-01-30T09:27:16;6.80;99.90
17154;DHT22;8692;52.164;7.558;2024-01-30T09:29:44;6.80;99.90
17154;DHT22;8692;52.164;7.558;2024-01-30T09:32:12;6.90;99.90
17154;DHT22;8692;52.164;7.558;2024-01-30T09:34:41;6.90;99.90
17154;DHT22;8692;52.164;7.558;2024-01-30T09:37:10;7.00;99.90
17154;DHT22;8692;52.164;7.558;2024-01-30T09:39:38;7.10;99.90
17154;DHT22;8692;52.164;7.558;2024-01-30T09:42:14;7.10;99.90
17154;DHT22;8692;52.164;7.558;2024-01-30T09:44:46;7.20;99.90
17154;DHT22;8692;52.164;7.558;2024-01-30T09:47:16;7.20;99.90
17154;DHT22;8692;52.164;7.558;2024-01-30T09:49:46;7.30;99.90
17154;DHT22;8692;52.164;7.558;2024-01-30T09:52:14;7.30;99.90
17154;DHT22;8692;52.164;7.558;2024-01-30T09:54:43;7.40;99.90
17154;DHT22;8692;52.164;7.558;2024-01-30T09:57:12;7.40;99.90
17154;DHT22;8692;52.164;7.558;2024-01-30T09:59:42;7.50;99.90
17154;DHT22;8692;52.164;7.558;2024-01-30T10:02:10;7.60;99.90
17154;DHT22;8692;52.164;7.558;2024-01-30T10:04:38;7.70;99.90
17154;DHT22;8692;52.164;7.558;2024-01-30T10:07:09;7.80;99.90
17154;DHT22;8692;52.164;7.558;2024-01-30T10:09:38;7.80;99.90
17154;DHT22;8692;52.164;7.558;2024-01-30T10:12:06;7.90;99.90
17154;DHT22;8692;52.164;7.558;2024-01-30T10:14:37;8.00;99.90
17154;DHT22;8692;52.164;7.558;2024-01-30T10:17:07;8.00;99.90
17154;DHT22;8692;52.164;7.558;2024-01-30T10:19:47;8.00;99.90
17154;DHT22;8692;52.164;7.558;2024-01-30T10:22:17;8.10;99.90
17154;DHT22;8692;52.164;7.558;2024-01-30T10:24:45;8.10;99.90
17154;DHT22;8692;52.164;7.558;2024-01-30T10:27:13;8.20;99.90
17154;DHT22;8692;52.164;7.558;2024-01-30T10:29:41;8.20;99.90
17154;DHT22;8692;52.164;7.558;2024-01-30T10:32:09;8.20;99.90
17154;DHT22;8692;52.164;7.558;2024-01-30T10:34:37;8.30;99.90
17154;DHT22;8692;52.164;7.558;2024-01-30T10:37:08;8.30;99.90
17154;DHT22;8692;52.164;7.558;2024-01-30T10:39:41;8.40;99.90
17154;DHT22;8692;52.164;7.558;2024-01-30T10:42:12;8.40;99.90
17154;DHT22;8692;52.164;7.558;2024-01-30T10:44:46;8.50;99.90
17154;DHT22;8692;52.164;7.558;2024-01-30T10:47:21;8.60;99.90
17154;DHT22;8692;52.164;7.558;2024-01-30T10:49:51;8.60;99.90
17154;DHT22;8692;52.164;7.558;2024-01-30T10:52:21;8.70;99.90
17154;DHT22;8692;52.164;7.558;2024-01-30T10:54:53;8.70;99.90
17154;DHT22;8692;52.164;7.558;2024-01-30T10:57:23;8.80;99.90
17154;DHT22;8692;52.164;7.558;2024-01-30T10:59:52;8.80;99.90
17154;DHT22;8692;52.164;7.558;2024-01-30T11:02:22;8.90;99.90
17154;DHT22;8692;52.164;7.558;2024-01-30T11:04:58;9.00;99.90
17154;DHT22;8692;52.164;7.558;2024-01-30T11:07:27;9.10;99.90
17154;DHT22;8692;52.164;7.558;2024-01-30T11:10:03;9.20;99.90
17154;DHT22;8692;52.164;7.558;2024-01-30T11:12:32;9.30;99.90
17154;DHT22;8692;52.164;7.558;2024-01-30T11:15:06;9.40;99.90
17154;DHT22;8692;52.164;7.558;2024-01-30T11:17:45;9.60;99.90
17154;DHT22;8692;52.164;7.558;2024-01-30T11:20:20;9.80;99.90
17154;DHT22;8692;52.164;7.558;2024-01-30T11:22:51;9.90;99.90
17154;DHT22;8692;52.164;7.558;2024-01-30T11:25:21;10.00;99.90
17154;DHT22;8692;52.164;7.558;2024-01-30T11:27:51;10.10;99.90
17154;DHT22;8692;52.164;7.558;2024-01-30T11:30:23;10.20;99.90
17154;DHT22;8692;52.164;7.558;2024-01-30T11:32:59;10.20;99.90
17154;DHT22;8692;52.164;7.558;2024-01-30T11:35:31;10.20;99.90
17154;DHT22;8692;52.164;7.558;2024-01-30T11:38:00;10.30;99.90
17154;DHT22;8692;52.164;7.558;2024-01-30T11:40:30;10.30;99.90
17154;DHT22;8692;52.164;7.558;2024-01-30T11:43:00;10.30;99.90
17154;DHT22;8692;52.164;7.558;2024-01-30T11:45:29;10.30;99.90
17154;DHT22;8692;52.164;7.558;2024-01-30T11:47:58;10.40;99.90
17154;DHT22;8692;52.164;7.558;2024-01-30T11:50:27;10.40;99.90
17154;DHT22;8692;52.164;7.558;2024-01-30T11:52:55;10.40;99.90
17154;DHT22;8692;52.164;7.558;2024-01-30T11:55:24;10.50;99.90
17154;DHT22;8692;52.164;7.558;2024-01-30T11:57:56;10.50;99.90
17154;DHT22;8692;52.164;7.558;2024-01-30T12:00:25;10.60;99.90
17154;DHT22;8692;52.164;7.558;2024-01-30T12:02:55;10.60;99.90
17154;DHT22;8692;52.164;7.558;2024-01-30T12:05:24;10.60;99.90
17154;DHT22;8692;52.164;7.558;2024-01-30T12:07:52;10.60;99.90
17154;DHT22;8692;52.164;7.558;2024-01-30T12:10:21;10.70;99.90
17154;DHT22;8692;52.164;7.558;2024-01-30T12:12:50;10.70;99.90
17154;DHT22;8692;52.164;7.558;2024-01-30T12:15:21;10.70;99.90
17154;DHT22;8692;52.164;7.558;2024-01-30T12:17:49;10.80;99.90
17154;DHT22;8692;52.164;7.558;2024-01-30T12:20:19;10.80;99.90
17154;DHT22;8692;52.164;7.558;2024-01-30T12:22:49;10.80;99.90
17154;DHT22;8692;52.164;7.558;2024-01-30T12:25:20;10.80;99.90
17154;DHT22;8692;52.164;7.558;2024-01-30T12:27:50;10.90;99.90
17154;DHT22;8692;52.164;7.558;2024-01-30T12:30:21;10.90;99.90
17154;DHT22;8692;52.164;7.558;2024-01-30T12:32:50;10.90;99.90
17154;DHT22;8692;52.164;7.558;2024-01-30T12:35:19;11.00;99.90
17154;DHT22;8692;52.164;7.558;2024-01-30T12:37:49;11.00;99.90
17154;DHT22;8692;52.164;7.558;2024-01-30T12:40:17;11.00;99.90
17154;DHT22;8692;52.164;7.558;2024-01-30T12:42:46;11.00;99.90
17154;DHT22;8692;52.164;7.558;2024-01-30T12:45:17;10.90;99.90
17154;DHT22;8692;52.164;7.558;2024-01-30T12:47:48;10.90;99.90
17154;DHT22;8692;52.164;7.558;2024-01-30T12:50:16;10.90;99.90
17154;DHT22;8692;52.164;7.558;2024-01-30T12:52:45;10.90;99.90
17154;DHT22;8692;52.164;7.558;2024-01-30T12:55:16;10.90;99.90
17154;DHT22;8692;52.164;7.558;2024-01-30T12:57:44;10.90;99.90
17154;DHT22;8692;52.164;7.558;2024-01-30T13:00:13;10.90;99.90
17154;DHT22;8692;52.164;7.558;2024-01-30T13:02:44;10.90;99.90
17154;DHT22;8692;52.164;7.558;2024-01-30T13:05:13;11.00;99.90
17154;DHT22;8692;52.164;7.558;2024-01-30T13:07:42;11.00;99.90
17154;DHT22;8692;52.164;7.558;2024-01-30T13:10:10;11.00;99.90
17154;DHT22;8692;52.164;7.558;2024-01-30T13:12:38;11.10;99.90
17154;DHT22;8692;52.164;7.558;2024-01-30T13:15:06;11.10;99.90
17154;DHT22;8692;52.164;7.558;2024-01-30T13:17:35;11.10;99.90
17154;DHT22;8692;52.164;7.558;2024-01-30T13:20:04;11.10;99.90
17154;DHT22;8692;52.164;7.558;2024-01-30T13:22:39;11.10;99.90
17154;DHT22;8692;52.164;7.558;2024-01-30T13:25:07;11.10;99.90
17154;DHT22;8692;52.164;7.558;2024-01-30T13:27:36;11.20;99.90
17154;DHT22;8692;52.164;7.558;2024-01-30T13:30:07;11.10;99.90
17154;DHT22;8692;52.164;7.558;2024-01-30T13:32:36;11.20;99.90
17154;DHT22;8692;52.164;7.558;2024-01-30T13:35:05;11.20;99.90
17154;DHT22;8692;52.164;7.558;2024-01-30T13:37:33;11.20;99.90
17154;DHT22;8692;52.164;7.558;2024-01-30T13:40:05;11.10;99.90
17154;DHT22;8692;52.164;7.558;2024-01-30T13:42:39;11.10;99.90
17154;DHT22;8692;52.164;7.558;2024-01-30T13:45:08;11.10;99.90
17154;DHT22;8692;52.164;7.558;2024-01-30T13:47:38;11.10;99.90
17154;DHT22;8692;52.164;7.558;2024-01-30T13:50:06;11.10;99.90
17154;DHT22;8692;52.164;7.558;2024-01-30T13:52:34;11.10;99.90
17154;DHT22;8692;52.164;7.558;2024-01-30T13:55:12;11.10;99.90
17154;DHT22;8692;52.164;7.558;2024-01-30T13:57:40;11.10;99.90
17154;DHT22;8692;52.164;7.558;2024-01-30T14:00:09;11.00;99.90
17154;DHT22;8692;52.164;7.558;2024-01-30T14:02:41;11.10;99.90
17154;DHT22;8692;52.164;7.558;2024-01-30T14:05:09;11.00;99.90
17154;DHT22;8692;52.164;7.558;2024-01-30T14:07:37;11.10;99.90
17154;DHT22;8692;52.164;7.558;2024-01-30T14:10:07;11.10;99.90
17154;DHT22;8692;52.164;7.558;2024-01-30T14:12:41;11.10;99.90
17154;DHT22;8692;52.164;7.558;2024-01-30T14:15:10;11.10;99.90
17154;DHT22;8692;52.164;7.558;2024-01-30T14:17:53;11.10;99.90
17154;DHT22;8692;52.164;7.558;2024-01-30T14:20:21;11.20;99.90
17154;DHT22;8692;52.164;7.558;2024-01-30T14:22:50;11.20;99.90
17154;DHT22;8692;52.164;7.558;2024-01-30T14:25:18;11.30;99.90
17154;DHT22;8692;52.164;7.558;2024-01-30T14:27:47;11.30;99.90
17154;DHT22;8692;52.164;7.558;2024-01-30T14:30:16;11.40;99.90
17154;DHT22;8692;52.164;7.558;2024-01-30T14:32:44;11.50;99.90
17154;DHT22;8692;52.164;7.558;2024-01-30T14:35:13;11.60;99.90
17154;DHT22;8692;52.164;7.558;2024-01-30T14:37:41;11.70;99.90
17154;DHT22;8692;52.164;7.558;2024-01-30T14:40:09;11.70;99.90
17154;DHT22;8692;52.164;7.558;2024-01-30T14:42:38;11.70;99.90
17154;DHT22;8692;52.164;7.558;2024-01-30T14:45:07;11.70;99.90
17154;DHT22;8692;52.164;7.558;2024-01-30T14:47:36;11.70;99.90
17154;DHT22;8692;52.164;7.558;2024-01-30T14:50:05;11.70;99.90
17154;DHT22;8692;52.164;7.558;2024-01-30T14:52:35;11.70;99.90
17154;DHT22;8692;52.164;7.558;2024-01-30T14:55:04;11.70;99.90
17154;DHT22;8692;52.164;7.558;2024-01-30T14:57:33;11.60;99.90
17154;DHT22;8692;52.164;7.558;2024-01-30T15:00:02;11.60;99.90
17154;DHT22;8692;52.164;7.558;2024-01-30T15:02:33;11.60;99.90
17154;DHT22;8692;52.164;7.558;2024-01-30T15:05:01;11.50;99.90
17154;DHT22;8692;52.164;7.558;2024-01-30T15:07:30;11.40;99.90
17154;DHT22;8692;52.164;7.558;2024-01-30T15:10:07;11.30;99.90
17154;DHT22;8692;52.164;7.558;2024-01-30T15:12:36;11.30;99.90
17154;DHT22;8692;52.164;7.558;2024-01-30T15:15:06;11.30;99.90
17154;DHT22;8692;52.164;7.558;2024-01-30T15:17:37;11.20;99.90
17154;DHT22;8692;52.164;7.558;2024-01-30T15:20:06;11.20;99.90
17154;DHT22;8692;52.164;7.558;2024-01-30T15:22:34;11.20;99.90
17154;DHT22;8692;52.164;7.558;2024-01-30T15:25:03;11.10;99.90
17154;DHT22;8692;52.164;7.558;2024-01-30T15:27:32;11.10;99.90
17154;DHT22;8692;52.164;7.558;2024-01-30T15:30:00;11.00;99.90
17154;DHT22;8692;52.164;7.558;2024-01-30T15:32:28;11.00;99.90
17154;DHT22;8692;52.164;7.558;2024-01-30T15:34:57;10.90;99.90
17154;DHT22;8692;52.164;7.558;2024-01-30T15:37:27;10.90;99.90
17154;DHT22;8692;52.164;7.558;2024-01-30T15:39:56;10.80;99.90
17154;DHT22;8692;52.164;7.558;2024-01-30T15:42:24;10.80;99.90
17154;DHT22;8692;52.164;7.558;2024-01-30T15:44:52;10.70;99.90
17154;DHT22;8692;52.164;7.558;2024-01-30T15:47:20;10.70;99.90
17154;DHT22;8692;52.164;7.558;2024-01-30T15:49:48;10.60;99.90
17154;DHT22;8692;52.164;7.558;2024-01-30T15:52:18;10.60;99.90
17154;DHT22;8692;52.164;7.558;2024-01-30T15:54:46;10.50;99.90
17154;DHT22;8692;52.164;7.558;2024-01-30T15:57:14;10.50;99.90
17154;DHT22;8692;52.164;7.558;2024-01-30T15:59:42;10.40;99.90
17154;DHT22;8692;52.164;7.558;2024-01-30T16:02:10;10.40;99.90
17154;DHT22;8692;52.164;7.558;2024-01-30T16:04:38;10.30;99.90
17154;DHT22;8692;52.164;7.558;2024-01-30T16:07:06;10.20;99.90